sensor_id;sensor_type;location;lat;lon;timestamp;pressure;altitude;pressure_sealevel;temperature
74539;BMP180;66042;51.090;-115.340;2023-06-22T00:01:20;87080.00;;;15.88
74539;BMP180;66042;51.090;-115.340;2023-06-22T00:03:49;87093.20;;;15.70
74539;BMP180;66042;51.090;-115.340;2023-06-22T00:06:16;87095.80;;;15.60
74539;BMP180;66042;51.090;-115.340;2023-06-22T00:08:43;87102.40;;;15.50
74539;BMP180;66042;51.090;-115.340;2023-06-22T00:11:10;87104.20;;;15.30
74539;BMP180;66042;51.090;-115.340;2023-06-22T00:13:38;87107.20;;;15.00
74539;BMP180;66042;51.090;-115.340;2023-06-22T00:16:05;87112.20;;;14.90
74539;BMP180;66042;51.090;-115.340;2023-06-22T00:18:32;87109.60;;;14.70
74539;BMP180;66042;51.090;-115.340;2023-06-22T00:20:59;87117.60;;;14.60
74539;BMP180;66042;51.090;-115.340;2023-06-22T00:23:26;87117.00;;;14.40
74539;BMP180;66042;51.090;-115.340;2023-06-22T00:25:53;87113.20;;;14.40
74539;BMP180;66042;51.090;-115.340;2023-06-22T00:28:21;87105.00;;;14.40
74539;BMP180;66042;51.090;-115.340;2023-06-22T00:30:49;87103.00;;;14.40
74539;BMP180;66042;51.090;-115.340;2023-06-22T00:33:16;87096.80;;;14.48
74539;BMP180;66042;51.090;-115.340;2023-06-22T00:35:43;87100.20;;;14.56
74539;BMP180;66042;51.090;-115.340;2023-06-22T00:38:11;87097.20;;;14.76
74539;BMP180;66042;51.090;-115.340;2023-06-22T00:40:39;87092.80;;;15.02
74539;BMP180;66042;51.090;-115.340;2023-06-22T00:43:06;87088.20;;;15.54
74539;BMP180;66042;51.090;-115.340;2023-06-22T00:45:33;87082.20;;;16.40
74539;BMP180;66042;51.090;-115.340;2023-06-22T00:48:01;87083.20;;;17.14
74539;BMP180;66042;51.090;-115.340;2023-06-22T00:50:32;87087.40;;;17.88
74539;BMP180;66042;51.090;-115.340;2023-06-22T00:53:08;87085.60;;;18.32
74539;BMP180;66042;51.090;-115.340;2023-06-22T00:55:42;87081.80;;;18.44
74539;BMP180;66042;51.090;-115.340;2023-06-22T00:58:11;87079.60;;;18.90
74539;BMP180;66042;51.090;-115.340;2023-06-22T01:00:39;87074.00;;;19.00
74539;BMP180;66042;51.090;-115.340;2023-06-22T01:03:08;87077.20;;;18.90
74539;BMP180;66042;51.090;-115.340;2023-06-22T01:05:37;87072.00;;;18.90
74539;BMP180;66042;51.090;-115.340;2023-06-22T01:09:15;87072.20;;;19.00
74539;BMP180;66042;51.090;-115.340;2023-06-22T01:11:26;87071.80;;;18.98
74539;BMP180;66042;51.090;-115.340;2023-06-22T01:16:38;87055.60;;;19.08
74539;BMP180;66042;51.090;-115.340;2023-06-22T01:19:39;87054.60;;;19.32
74539;BMP180;66042;51.090;-115.340;2023-06-22T01:22:10;87051.20;;;19.88
74539;BMP180;66042;51.090;-115.340;2023-06-22T01:30:52;87046.60;;;22.86
74539;BMP180;66042;51.090;-115.340;2023-06-22T01:33:41;87043.00;;;24.04
74539;BMP180;66042;51.090;-115.340;2023-06-22T01:36:10;87047.00;;;25.26
74539;BMP180;66042;51.090;-115.340;2023-06-22T01:38:38;87045.00;;;26.14
74539;BMP180;66042;51.090;-115.340;2023-06-22T01:41:06;87049.40;;;27.14
74539;BMP180;66042;51.090;-115.340;2023-06-22T01:43:34;87054.60;;;27.96
74539;BMP180;66042;51.090;-115.340;2023-06-22T01:46:03;87056.20;;;28.62
74539;BMP180;66042;51.090;-115.340;2023-06-22T01:48:31;87060.60;;;29.22
74539;BMP180;66042;51.090;-115.340;2023-06-22T01:50:59;87069.40;;;28.72
74539;BMP180;66042;51.090;-115.340;2023-06-22T01:53:26;87066.60;;;27.66
74539;BMP180;66042;51.090;-115.340;2023-06-22T01:55:53;87066.00;;;26.64
74539;BMP180;66042;51.090;-115.340;2023-06-22T01:58:26;87059.20;;;27.04
74539;BMP180;66042;51.090;-115.340;2023-06-22T02:01:07;87070.00;;;27.40
74539;BMP180;66042;51.090;-115.340;2023-06-22T02:03:43;87069.40;;;26.58
74539;BMP180;66042;51.090;-115.340;2023-06-22T02:06:36;87066.20;;;25.64
74539;BMP180;66042;51.090;-115.340;2023-06-22T02:09:14;87072.20;;;24.46
74539;BMP180;66042;51.090;-115.340;2023-06-22T02:11:45;87069.40;;;23.52
74539;BMP180;66042;51.090;-115.340;2023-06-22T02:14:15;87069.40;;;22.72
74539;BMP180;66042;51.090;-115.340;2023-06-22T02:16:43;87070.80;;;22.06
74539;BMP180;66042;51.090;-115.340;2023-06-22T02:19:09;87072.80;;;21.50
74539;BMP180;66042;51.090;-115.340;2023-06-22T02:21:36;87074.80;;;21.00
74539;BMP180;66042;51.090;-115.340;2023-06-22T02:24:04;87073.60;;;20.50
74539;BMP180;66042;51.090;-115.340;2023-06-22T02:26:33;87076.40;;;20.14
74539;BMP180;66042;51.090;-115.340;2023-06-22T02:29:01;87075.80;;;19.80
74539;BMP180;66042;51.090;-115.340;2023-06-22T02:31:27;87083.00;;;19.36
74539;BMP180;66042;51.090;-115.340;2023-06-22T02:33:59;87084.00;;;19.08
74539;BMP180;66042;51.090;-115.340;2023-06-22T02:36:26;87082.60;;;18.78
74539;BMP180;66042;51.090;-115.340;2023-06-22T02:38:54;87083.20;;;18.50
74539;BMP180;66042;51.090;-115.340;2023-06-22T02:41:23;87087.00;;;18.30
74539;BMP180;66042;51.090;-115.340;2023-06-22T02:43:50;87085.80;;;18.00
74539;BMP180;66042;51.090;-115.340;2023-06-22T02:46:17;87088.00;;;17.80
74539;BMP180;66042;51.090;-115.340;2023-06-22T02:48:44;87086.40;;;17.60
74539;BMP180;66042;51.090;-115.340;2023-06-22T02:51:12;87085.40;;;17.50
74539;BMP180;66042;51.090;-115.340;2023-06-22T02:53:39;87084.80;;;17.30
74539;BMP180;66042;51.090;-115.340;2023-06-22T02:56:06;87080.00;;;17.10
74539;BMP180;66042;51.090;-115.340;2023-06-22T02:58:33;87085.00;;;16.96
74539;BMP180;66042;51.090;-115.340;2023-06-22T03:01:07;87082.80;;;16.78
74539;BMP180;66042;51.090;-115.340;2023-06-22T03:03:34;87087.20;;;16.50
74539;BMP180;66042;51.090;-115.340;2023-06-22T03:06:01;87082.60;;;16.30
74539;BMP180;66042;51.090;-115.340;2023-06-22T03:08:28;87075.60;;;16.08
74539;BMP180;66042;51.090;-115.340;2023-06-22T03:10:56;87076.80;;;15.80
74539;BMP180;66042;51.090;-115.340;2023-06-22T03:13:24;87082.40;;;15.60
74539;BMP180;66042;51.090;-115.340;2023-06-22T03:15:50;87080.40;;;15.40
74539;BMP180;66042;51.090;-115.340;2023-06-22T03:18:17;87080.60;;;15.20
74539;BMP180;66042;51.090;-115.340;2023-06-22T03:20:44;87080.20;;;15.00
74539;BMP180;66042;51.090;-115.340;2023-06-22T03:23:11;87075.40;;;14.90
74539;BMP180;66042;51.090;-115.340;2023-06-22T03:25:38;87067.80;;;14.70
74539;BMP180;66042;51.090;-115.340;2023-06-22T03:28:05;87068.00;;;14.60
74539;BMP180;66042;51.090;-115.340;2023-06-22T03:30:32;87069.40;;;14.40
74539;BMP180;66042;51.090;-115.340;2023-06-22T03:33:00;87071.60;;;14.28
74539;BMP180;66042;51.090;-115.340;2023-06-22T03:35:26;87079.00;;;14.10
74539;BMP180;66042;51.090;-115.340;2023-06-22T03:37:53;87079.00;;;14.00
74539;BMP180;66042;51.090;-115.340;2023-06-22T03:40:20;87080.00;;;13.90
74539;BMP180;66042;51.090;-115.340;2023-06-22T03:42:47;87077.80;;;13.70
74539;BMP180;66042;51.090;-115.340;2023-06-22T03:45:15;87079.60;;;13.60
74539;BMP180;66042;51.090;-115.340;2023-06-22T03:47:42;87082.40;;;13.50
74539;BMP180;66042;51.090;-115.340;2023-06-22T03:50:10;87084.60;;;13.42
74539;BMP180;66042;51.090;-115.340;2023-06-22T03:52:37;87085.20;;;13.28
74539;BMP180;66042;51.090;-115.340;2023-06-22T03:55:05;87088.40;;;13.10
74539;BMP180;66042;51.090;-115.340;2023-06-22T03:57:32;87095.20;;;13.00
74539;BMP180;66042;51.090;-115.340;2023-06-22T03:59:59;87097.60;;;12.90
74539;BMP180;66042;51.090;-115.340;2023-06-22T04:02:26;87091.80;;;12.80
74539;BMP180;66042;51.090;-115.340;2023-06-22T04:04:53;87090.40;;;12.80
74539;BMP180;66042;51.090;-115.340;2023-06-22T04:07:20;87093.40;;;12.70
74539;BMP180;66042;51.090;-115.340;2023-06-22T04:09:47;87094.80;;;12.68
74539;BMP180;66042;51.090;-115.340;2023-06-22T04:12:14;87096.80;;;12.54
74539;BMP180;66042;51.090;-115.340;2023-06-22T04:14:41;87098.60;;;12.44
74539;BMP180;66042;51.090;-115.340;2023-06-22T04:17:08;87098.80;;;12.30
74539;BMP180;66042;51.090;-115.340;2023-06-22T04:19:34;87093.80;;;12.18
74539;BMP180;66042;51.090;-115.340;2023-06-22T04:22:01;87094.40;;;12.10
74539;BMP180;66042;51.090;-115.340;2023-06-22T04:24:28;87095.20;;;12.00
74539;BMP180;66042;51.090;-115.340;2023-06-22T04:26:55;87098.40;;;11.92
74539;BMP180;66042;51.090;-115.340;2023-06-22T04:29:21;87094.60;;;11.80
74539;BMP180;66042;51.090;-115.340;2023-06-22T04:31:56;87095.40;;;11.60
74539;BMP180;66042;51.090;-115.340;2023-06-22T04:34:25;87096.00;;;11.40
74539;BMP180;66042;51.090;-115.340;2023-06-22T04:36:55;87090.40;;;11.30
74539;BMP180;66042;51.090;-115.340;2023-06-22T04:39:21;87088.80;;;11.30
74539;BMP180;66042;51.090;-115.340;2023-06-22T04:41:49;87092.80;;;11.00
74539;BMP180;66042;51.090;-115.340;2023-06-22T04:44:19;87089.00;;;10.90
74539;BMP180;66042;51.090;-115.340;2023-06-22T04:47:01;87089.40;;;10.90
74539;BMP180;66042;51.090;-115.340;2023-06-22T04:49:31;87089.80;;;10.60
74539;BMP180;66042;51.090;-115.340;2023-06-22T04:52:07;87085.80;;;10.50
74539;BMP180;66042;51.090;-115.340;2023-06-22T04:54:36;87081.20;;;10.40
74539;BMP180;66042;51.090;-115.340;2023-06-22T04:57:06;87083.80;;;10.40
74539;BMP180;66042;51.090;-115.340;2023-06-22T04:59:37;87085.80;;;10.40
74539;BMP180;66042;51.090;-115.340;2023-06-22T05:02:06;87094.60;;;10.30
74539;BMP180;66042;51.090;-115.340;2023-06-22T05:04:34;87093.60;;;10.30
74539;BMP180;66042;51.090;-115.340;2023-06-22T05:07:05;87098.40;;;10.30
74539;BMP180;66042;51.090;-115.340;2023-06-22T05:09:33;87101.00;;;10.30
74539;BMP180;66042;51.090;-115.340;2023-06-22T05:12:02;87094.40;;;10.24
74539;BMP180;66042;51.090;-115.340;2023-06-22T05:14:29;87100.20;;;10.20
74539;BMP180;66042;51.090;-115.340;2023-06-22T05:16:57;87102.20;;;10.14
74539;BMP180;66042;51.090;-115.340;2023-06-22T05:19:30;87092.40;;;10.10
74539;BMP180;66042;51.090;-115.340;2023-06-22T05:21:59;87095.00;;;10.00
74539;BMP180;66042;51.090;-115.340;2023-06-22T05:24:26;87095.60;;;10.00
74539;BMP180;66042;51.090;-115.340;2023-06-22T05:26:53;87096.60;;;9.90
74539;BMP180;66042;51.090;-115.340;2023-06-22T05:29:20;87093.00;;;9.88
74539;BMP180;66042;51.090;-115.340;2023-06-22T05:31:49;87097.60;;;9.80
74539;BMP180;66042;51.090;-115.340;2023-06-22T05:34:16;87097.60;;;9.70
74539;BMP180;66042;51.090;-115.340;2023-06-22T05:36:42;87096.80;;;9.70
74539;BMP180;66042;51.090;-115.340;2023-06-22T05:39:14;87096.00;;;9.60
74539;BMP180;66042;51.090;-115.340;2023-06-22T05:41:41;87094.80;;;9.50
74539;BMP180;66042;51.090;-115.340;2023-06-22T05:44:10;87099.20;;;9.40
74539;BMP180;66042;51.090;-115.340;2023-06-22T05:46:40;87102.60;;;9.30
74539;BMP180;66042;51.090;-115.340;2023-06-22T05:49:12;87098.00;;;9.30
74539;BMP180;66042;51.090;-115.340;2023-06-22T05:51:39;87099.40;;;9.20
74539;BMP180;66042;51.090;-115.340;2023-06-22T05:54:07;87105.40;;;9.10
74539;BMP180;66042;51.090;-115.340;2023-06-22T05:56:35;87108.20;;;9.10
74539;BMP180;66042;51.090;-115.340;2023-06-22T05:59:02;87108.20;;;9.08
74539;BMP180;66042;51.090;-115.340;2023-06-22T06:01:28;87103.80;;;9.00
74539;BMP180;66042;51.090;-115.340;2023-06-22T06:03:57;87099.00;;;9.00
74539;BMP180;66042;51.090;-115.340;2023-06-22T06:06:24;87102.80;;;8.94
74539;BMP180;66042;51.090;-115.340;2023-06-22T06:08:55;87104.00;;;8.90
74539;BMP180;66042;51.090;-115.340;2023-06-22T06:11:23;87107.20;;;8.90
74539;BMP180;66042;51.090;-115.340;2023-06-22T06:13:50;87110.80;;;8.80
74539;BMP180;66042;51.090;-115.340;2023-06-22T06:16:17;87108.20;;;8.70
74539;BMP180;66042;51.090;-115.340;2023-06-22T06:18:44;87105.40;;;8.62
74539;BMP180;66042;51.090;-115.340;2023-06-22T06:21:11;87107.40;;;8.60
74539;BMP180;66042;51.090;-115.340;2023-06-22T06:23:37;87106.20;;;8.60
74539;BMP180;66042;51.090;-115.340;2023-06-22T06:26:04;87105.20;;;8.52
74539;BMP180;66042;51.090;-115.340;2023-06-22T06:28:34;87105.40;;;8.40
74539;BMP180;66042;51.090;-115.340;2023-06-22T06:31:01;87107.00;;;8.20
74539;BMP180;66042;51.090;-115.340;2023-06-22T06:33:28;87111.40;;;8.02
74539;BMP180;66042;51.090;-115.340;2023-06-22T06:35:55;87116.20;;;8.00
74539;BMP180;66042;51.090;-115.340;2023-06-22T06:38:22;87114.00;;;8.00
74539;BMP180;66042;51.090;-115.340;2023-06-22T06:40:49;87109.80;;;8.00
74539;BMP180;66042;51.090;-115.340;2023-06-22T06:43:16;87110.40;;;8.00
74539;BMP180;66042;51.090;-115.340;2023-06-22T06:45:42;87106.00;;;8.00
74539;BMP180;66042;51.090;-115.340;2023-06-22T06:48:09;87107.40;;;7.90
74539;BMP180;66042;51.090;-115.340;2023-06-22T06:50:36;87109.00;;;8.00
74539;BMP180;66042;51.090;-115.340;2023-06-22T06:53:03;87105.40;;;8.00
74539;BMP180;66042;51.090;-115.340;2023-06-22T06:55:29;87105.00;;;7.88
74539;BMP180;66042;51.090;-115.340;2023-06-22T06:57:59;87112.40;;;7.80
74539;BMP180;66042;51.090;-115.340;2023-06-22T07:00:26;87105.80;;;7.90
74539;BMP180;66042;51.090;-115.340;2023-06-22T07:02:53;87103.40;;;7.80
74539;BMP180;66042;51.090;-115.340;2023-06-22T07:05:21;87102.80;;;7.70
74539;BMP180;66042;51.090;-115.340;2023-06-22T07:07:48;87102.40;;;7.70
74539;BMP180;66042;51.090;-115.340;2023-06-22T07:10:15;87103.20;;;7.70
74539;BMP180;66042;51.090;-115.340;2023-06-22T07:12:44;87102.00;;;7.70
74539;BMP180;66042;51.090;-115.340;2023-06-22T07:15:11;87103.80;;;7.70
74539;BMP180;66042;51.090;-115.340;2023-06-22T07:17:39;87100.40;;;7.70
74539;BMP180;66042;51.090;-115.340;2023-06-22T07:20:10;87099.80;;;7.70
74539;BMP180;66042;51.090;-115.340;2023-06-22T07:22:40;87103.20;;;7.70
74539;BMP180;66042;51.090;-115.340;2023-06-22T07:25:08;87103.80;;;7.70
74539;BMP180;66042;51.090;-115.340;2023-06-22T07:27:55;87105.40;;;7.50
74539;BMP180;66042;51.090;-115.340;2023-06-22T07:30:23;87104.40;;;7.40
74539;BMP180;66042;51.090;-115.340;2023-06-22T07:32:51;87100.20;;;7.40
74539;BMP180;66042;51.090;-115.340;2023-06-22T07:35:17;87098.00;;;7.40
74539;BMP180;66042;51.090;-115.340;2023-06-22T07:37:44;87103.40;;;7.40
74539;BMP180;66042;51.090;-115.340;2023-06-22T07:40:12;87096.40;;;7.40
74539;BMP180;66042;51.090;-115.340;2023-06-22T07:42:39;87096.80;;;7.30
74539;BMP180;66042;51.090;-115.340;2023-06-22T07:45:06;87092.80;;;7.20
74539;BMP180;66042;51.090;-115.340;2023-06-22T07:47:37;87094.00;;;7.10
74539;BMP180;66042;51.090;-115.340;2023-06-22T07:50:04;87090.80;;;7.02
74539;BMP180;66042;51.090;-115.340;2023-06-22T07:52:32;87090.00;;;7.02
74539;BMP180;66042;51.090;-115.340;2023-06-22T07:54:59;87084.40;;;7.04
74539;BMP180;66042;51.090;-115.340;2023-06-22T07:57:26;87087.20;;;7.06
74539;BMP180;66042;51.090;-115.340;2023-06-22T08:00:02;87087.60;;;7.02
74539;BMP180;66042;51.090;-115.340;2023-06-22T08:02:31;87092.40;;;7.00
74539;BMP180;66042;51.090;-115.340;2023-06-22T08:04:57;87093.80;;;7.00
74539;BMP180;66042;51.090;-115.340;2023-06-22T08:07:25;87088.40;;;7.00
74539;BMP180;66042;51.090;-115.340;2023-06-22T08:09:51;87088.60;;;7.00
74539;BMP180;66042;51.090;-115.340;2023-06-22T08:12:19;87096.60;;;7.00
74539;BMP180;66042;51.090;-115.340;2023-06-22T08:14:46;87099.40;;;6.90
74539;BMP180;66042;51.090;-115.340;2023-06-22T08:17:13;87100.60;;;6.90
74539;BMP180;66042;51.090;-115.340;2023-06-22T08:19:40;87104.40;;;6.90
74539;BMP180;66042;51.090;-115.340;2023-06-22T08:22:07;87102.00;;;6.90
74539;BMP180;66042;51.090;-115.340;2023-06-22T08:24:34;87103.20;;;6.84
74539;BMP180;66042;51.090;-115.340;2023-06-22T08:27:01;87100.20;;;6.80
74539;BMP180;66042;51.090;-115.340;2023-06-22T08:29:29;87095.20;;;6.70
74539;BMP180;66042;51.090;-115.340;2023-06-22T08:31:56;87093.80;;;6.66
74539;BMP180;66042;51.090;-115.340;2023-06-22T08:34:24;87096.20;;;6.70
74539;BMP180;66042;51.090;-115.340;2023-06-22T08:36:54;87098.00;;;6.70
74539;BMP180;66042;51.090;-115.340;2023-06-22T08:39:21;87093.80;;;6.60
74539;BMP180;66042;51.090;-115.340;2023-06-22T08:41:48;87091.60;;;6.60
74539;BMP180;66042;51.090;-115.340;2023-06-22T08:44:19;87091.20;;;6.50
74539;BMP180;66042;51.090;-115.340;2023-06-22T08:46:46;87096.40;;;6.50
74539;BMP180;66042;51.090;-115.340;2023-06-22T08:49:13;87098.80;;;6.52
74539;BMP180;66042;51.090;-115.340;2023-06-22T08:51:40;87103.60;;;6.60
74539;BMP180;66042;51.090;-115.340;2023-06-22T08:54:07;87096.60;;;6.40
74539;BMP180;66042;51.090;-115.340;2023-06-22T08:56:34;87096.20;;;6.30
74539;BMP180;66042;51.090;-115.340;2023-06-22T08:59:01;87092.20;;;6.30
74539;BMP180;66042;51.090;-115.340;2023-06-22T09:01:28;87095.00;;;6.30
74539;BMP180;66042;51.090;-115.340;2023-06-22T09:03:55;87098.20;;;6.30
74539;BMP180;66042;51.090;-115.340;2023-06-22T09:06:24;87098.80;;;6.36
74539;BMP180;66042;51.090;-115.340;2023-06-22T09:08:51;87103.00;;;6.30
74539;BMP180;66042;51.090;-115.340;2023-06-22T09:11:18;87103.40;;;6.30
74539;BMP180;66042;51.090;-115.340;2023-06-22T09:13:45;87104.20;;;6.30
74539;BMP180;66042;51.090;-115.340;2023-06-22T09:16:13;87109.20;;;6.30
74539;BMP180;66042;51.090;-115.340;2023-06-22T09:18:40;87105.60;;;6.30
74539;BMP180;66042;51.090;-115.340;2023-06-22T09:21:07;87105.60;;;6.30
74539;BMP180;66042;51.090;-115.340;2023-06-22T09:23:35;87110.60;;;6.20
74539;BMP180;66042;51.090;-115.340;2023-06-22T09:26:02;87110.20;;;6.20
74539;BMP180;66042;51.090;-115.340;2023-06-22T09:28:30;87109.40;;;6.10
74539;BMP180;66042;51.090;-115.340;2023-06-22T09:30:58;87112.00;;;6.00
74539;BMP180;66042;51.090;-115.340;2023-06-22T09:33:26;87111.80;;;6.00
74539;BMP180;66042;51.090;-115.340;2023-06-22T09:35:53;87109.60;;;6.00
74539;BMP180;66042;51.090;-115.340;2023-06-22T09:38:20;87108.80;;;6.00
74539;BMP180;66042;51.090;-115.340;2023-06-22T09:40:47;87109.00;;;5.90
74539;BMP180;66042;51.090;-115.340;2023-06-22T09:43:14;87112.20;;;5.90
74539;BMP180;66042;51.090;-115.340;2023-06-22T09:45:41;87109.60;;;5.90
74539;BMP180;66042;51.090;-115.340;2023-06-22T09:48:08;87111.80;;;5.70
74539;BMP180;66042;51.090;-115.340;2023-06-22T09:50:36;87108.00;;;5.70
74539;BMP180;66042;51.090;-115.340;2023-06-22T09:53:03;87104.80;;;5.70
74539;BMP180;66042;51.090;-115.340;2023-06-22T09:55:30;87110.00;;;5.78
74539;BMP180;66042;51.090;-115.340;2023-06-22T09:57:57;87109.40;;;5.80
74539;BMP180;66042;51.090;-115.340;2023-06-22T10:00:25;87107.00;;;5.80
74539;BMP180;66042;51.090;-115.340;2023-06-22T10:02:53;87111.20;;;5.80
74539;BMP180;66042;51.090;-115.340;2023-06-22T10:05:20;87117.80;;;5.80
74539;BMP180;66042;51.090;-115.340;2023-06-22T10:07:47;87112.80;;;5.80
74539;BMP180;66042;51.090;-115.340;2023-06-22T10:10:14;87113.60;;;5.80
74539;BMP180;66042;51.090;-115.340;2023-06-22T10:12:57;87121.20;;;5.74
74539;BMP180;66042;51.090;-115.340;2023-06-22T10:15:24;87118.80;;;5.70
74539;BMP180;66042;51.090;-115.340;2023-06-22T10:17:53;87118.80;;;5.70
74539;BMP180;66042;51.090;-115.340;2023-06-22T10:20:20;87119.80;;;5.60
74539;BMP180;66042;51.090;-115.340;2023-06-22T10:22:48;87124.80;;;5.60
74539;BMP180;66042;51.090;-115.340;2023-06-22T10:25:15;87129.00;;;5.60
74539;BMP180;66042;51.090;-115.340;2023-06-22T10:27:42;87123.40;;;5.60
74539;BMP180;66042;51.090;-115.340;2023-06-22T10:30:11;87123.60;;;5.60
74539;BMP180;66042;51.090;-115.340;2023-06-22T10:32:43;87120.40;;;5.60
74539;BMP180;66042;51.090;-115.340;2023-06-22T10:35:11;87123.40;;;5.58
74539;BMP180;66042;51.090;-115.340;2023-06-22T10:37:46;87122.60;;;5.60
74539;BMP180;66042;51.090;-115.340;2023-06-22T10:40:17;87125.80;;;5.60
74539;BMP180;66042;51.090;-115.340;2023-06-22T10:42:45;87124.60;;;5.60
74539;BMP180;66042;51.090;-115.340;2023-06-22T10:45:12;87125.20;;;5.64
74539;BMP180;66042;51.090;-115.340;2023-06-22T10:47:40;87124.40;;;5.70
74539;BMP180;66042;51.090;-115.340;2023-06-22T10:50:08;87127.20;;;5.78
74539;BMP180;66042;51.090;-115.340;2023-06-22T10:52:36;87126.20;;;5.80
74539;BMP180;66042;51.090;-115.340;2023-06-22T10:55:03;87127.80;;;5.80
74539;BMP180;66042;51.090;-115.340;2023-06-22T10:57:30;87129.60;;;5.80
74539;BMP180;66042;51.090;-115.340;2023-06-22T10:59:57;87129.00;;;5.80
74539;BMP180;66042;51.090;-115.340;2023-06-22T11:02:24;87131.80;;;5.82
74539;BMP180;66042;51.090;-115.340;2023-06-22T11:04:51;87135.80;;;5.90
74539;BMP180;66042;51.090;-115.340;2023-06-22T11:07:18;87136.80;;;5.80
74539;BMP180;66042;51.090;-115.340;2023-06-22T11:09:45;87137.00;;;5.82
74539;BMP180;66042;51.090;-115.340;2023-06-22T11:12:15;87134.40;;;5.82
74539;BMP180;66042;51.090;-115.340;2023-06-22T11:14:42;87133.20;;;5.86
74539;BMP180;66042;51.090;-115.340;2023-06-22T11:17:09;87137.60;;;5.90
74539;BMP180;66042;51.090;-115.340;2023-06-22T11:19:35;87132.80;;;5.90
74539;BMP180;66042;51.090;-115.340;2023-06-22T11:22:03;87132.40;;;5.90
74539;BMP180;66042;51.090;-115.340;2023-06-22T11:24:30;87131.00;;;5.90
74539;BMP180;66042;51.090;-115.340;2023-06-22T11:26:56;87128.40;;;5.92
74539;BMP180;66042;51.090;-115.340;2023-06-22T11:29:23;87128.40;;;6.00
74539;BMP180;66042;51.090;-115.340;2023-06-22T11:31:50;87129.20;;;6.10
74539;BMP180;66042;51.090;-115.340;2023-06-22T11:34:17;87132.20;;;6.10
74539;BMP180;66042;51.090;-115.340;2023-06-22T11:36:45;87127.40;;;6.10
74539;BMP180;66042;51.090;-115.340;2023-06-22T11:39:13;87127.80;;;6.10
74539;BMP180;66042;51.090;-115.340;2023-06-22T11:41:41;87126.80;;;6.20
74539;BMP180;66042;51.090;-115.340;2023-06-22T11:44:08;87125.80;;;6.20
74539;BMP180;66042;51.090;-115.340;2023-06-22T11:46:35;87128.00;;;6.10
74539;BMP180;66042;51.090;-115.340;2023-06-22T11:49:03;87127.40;;;6.14
74539;BMP180;66042;51.090;-115.340;2023-06-22T11:51:30;87123.20;;;6.20
74539;BMP180;66042;51.090;-115.340;2023-06-22T11:53:58;87116.20;;;6.22
74539;BMP180;66042;51.090;-115.340;2023-06-22T11:56:25;87118.00;;;6.30
74539;BMP180;66042;51.090;-115.340;2023-06-22T11:58:53;87114.60;;;6.30
74539;BMP180;66042;51.090;-115.340;2023-06-22T12:01:20;87109.20;;;6.40
74539;BMP180;66042;51.090;-115.340;2023-06-22T12:03:47;87110.20;;;6.40
74539;BMP180;66042;51.090;-115.340;2023-06-22T12:06:14;87104.60;;;6.40
74539;BMP180;66042;51.090;-115.340;2023-06-22T12:08:41;87105.60;;;6.48
74539;BMP180;66042;51.090;-115.340;2023-06-22T12:11:08;87104.80;;;6.50
74539;BMP180;66042;51.090;-115.340;2023-06-22T12:13:35;87105.20;;;6.50
74539;BMP180;66042;51.090;-115.340;2023-06-22T12:16:02;87104.00;;;6.58
74539;BMP180;66042;51.090;-115.340;2023-06-22T12:18:28;87102.60;;;6.60
74539;BMP180;66042;51.090;-115.340;2023-06-22T12:20:55;87108.00;;;6.60
74539;BMP180;66042;51.090;-115.340;2023-06-22T12:23:22;87105.80;;;6.60
74539;BMP180;66042;51.090;-115.340;2023-06-22T12:25:49;87096.80;;;6.60
74539;BMP180;66042;51.090;-115.340;2023-06-22T12:28:16;87096.20;;;6.60
74539;BMP180;66042;51.090;-115.340;2023-06-22T12:30:43;87098.20;;;6.62
74539;BMP180;66042;51.090;-115.340;2023-06-22T12:33:11;87093.20;;;6.66
74539;BMP180;66042;51.090;-115.340;2023-06-22T12:35:37;87093.80;;;6.70
74539;BMP180;66042;51.090;-115.340;2023-06-22T12:38:04;87099.00;;;6.70
74539;BMP180;66042;51.090;-115.340;2023-06-22T12:40:32;87092.60;;;6.70
74539;BMP180;66042;51.090;-115.340;2023-06-22T12:42:59;87091.80;;;6.78
74539;BMP180;66042;51.090;-115.340;2023-06-22T12:45:26;87094.20;;;6.80
74539;BMP180;66042;51.090;-115.340;2023-06-22T12:47:55;87091.60;;;6.90
74539;BMP180;66042;51.090;-115.340;2023-06-22T12:50:22;87087.20;;;6.96
74539;BMP180;66042;51.090;-115.340;2023-06-22T12:52:49;87089.20;;;7.00
74539;BMP180;66042;51.090;-115.340;2023-06-22T12:55:16;87088.00;;;7.06
74539;BMP180;66042;51.090;-115.340;2023-06-22T12:57:42;87087.80;;;7.00
74539;BMP180;66042;51.090;-115.340;2023-06-22T13:00:10;87086.60;;;6.92
74539;BMP180;66042;51.090;-115.340;2023-06-22T13:02:37;87084.40;;;7.00
74539;BMP180;66042;51.090;-115.340;2023-06-22T13:05:05;87081.40;;;7.02
74539;BMP180;66042;51.090;-115.340;2023-06-22T13:07:32;87080.80;;;7.10
74539;BMP180;66042;51.090;-115.340;2023-06-22T13:09:58;87081.00;;;7.10
74539;BMP180;66042;51.090;-115.340;2023-06-22T13:12:25;87082.00;;;7.14
74539;BMP180;66042;51.090;-115.340;2023-06-22T13:14:52;87083.40;;;7.20
74539;BMP180;66042;51.090;-115.340;2023-06-22T13:17:19;87086.20;;;7.20
74539;BMP180;66042;51.090;-115.340;2023-06-22T13:19:45;87082.40;;;7.20
74539;BMP180;66042;51.090;-115.340;2023-06-22T13:22:33;87076.80;;;7.30
74539;BMP180;66042;51.090;-115.340;2023-06-22T13:25:06;87078.20;;;7.30
74539;BMP180;66042;51.090;-115.340;2023-06-22T13:27:34;87071.60;;;7.40
74539;BMP180;66042;51.090;-115.340;2023-06-22T13:30:01;87067.20;;;7.46
74539;BMP180;66042;51.090;-115.340;2023-06-22T13:32:28;87068.80;;;7.50
74539;BMP180;66042;51.090;-115.340;2023-06-22T13:34:55;87060.80;;;7.54
74539;BMP180;66042;51.090;-115.340;2023-06-22T13:37:22;87061.40;;;7.60
74539;BMP180;66042;51.090;-115.340;2023-06-22T13:39:48;87063.00;;;7.60
74539;BMP180;66042;51.090;-115.340;2023-06-22T13:42:15;87065.80;;;7.70
74539;BMP180;66042;51.090;-115.340;2023-06-22T13:44:42;87063.40;;;7.70
74539;BMP180;66042;51.090;-115.340;2023-06-22T13:47:09;87063.80;;;7.70
74539;BMP180;66042;51.090;-115.340;2023-06-22T13:49:36;87069.20;;;7.70
74539;BMP180;66042;51.090;-115.340;2023-06-22T13:52:03;87065.20;;;7.78
74539;BMP180;66042;51.090;-115.340;2023-06-22T13:54:30;87063.40;;;7.80